sensor_id;sensor_type;location;lat;lon;timestamp;pressure;altitude;pressure_sealevel;temperature;humidity
66945;BME280;53853;51.982;5.928;2023-08-30T00:01:30;100786.72;;;15.35;75.56
66945;BME280;53853;51.982;5.928;2023-08-30T00:04:01;100778.84;;;15.33;75.39
66945;BME280;53853;51.982;5.928;2023-08-30T00:06:31;100780.06;;;15.31;75.40
66945;BME280;53853;51.982;5.928;2023-08-30T00:09:04;100779.22;;;15.30;75.54
66945;BME280;53853;51.982;5.928;2023-08-30T00:11:35;100775.06;;;15.28;75.78
66945;BME280;53853;51.982;5.928;2023-08-30T00:14:05;100777.47;;;15.23;75.42
66945;BME280;53853;51.982;5.928;2023-08-30T00:16:36;100769.59;;;15.21;75.88
66945;BME280;53853;51.982;5.928;2023-08-30T00:19:07;100765.88;;;15.22;75.86
66945;BME280;53853;51.982;5.928;2023-08-30T00:21:37;100769.03;;;15.26;75.70
66945;BME280;53853;51.982;5.928;2023-08-30T00:24:10;100765.78;;;15.30;74.93
66945;BME280;53853;51.982;5.928;2023-08-30T00:26:40;100766.28;;;15.34;74.12
66945;BME280;53853;51.982;5.928;2023-08-30T00:29:10;100765.94;;;15.37;72.85
66945;BME280;53853;51.982;5.928;2023-08-30T00:31:40;100756.66;;;15.39;72.85
66945;BME280;53853;51.982;5.928;2023-08-30T00:34:10;100758.16;;;15.42;72.74
66945;BME280;53853;51.982;5.928;2023-08-30T00:36:41;100754.25;;;15.45;72.21
66945;BME280;53853;51.982;5.928;2023-08-30T00:39:13;100750.53;;;15.46;71.93
66945;BME280;53853;51.982;5.928;2023-08-30T00:41:44;100753.06;;;15.47;72.29
66945;BME280;53853;51.982;5.928;2023-08-30T00:44:14;100751.00;;;15.49;72.04
66945;BME280;53853;51.982;5.928;2023-08-30T00:46:45;100747.69;;;15.47;71.82
66945;BME280;53853;51.982;5.928;2023-08-30T00:49:15;100741.84;;;15.44;71.86
66945;BME280;53853;51.982;5.928;2023-08-30T00:51:45;100747.59;;;15.40;72.16
66945;BME280;53853;51.982;5.928;2023-08-30T00:54:17;100751.47;;;15.38;72.22
66945;BME280;53853;51.982;5.928;2023-08-30T00:56:48;100752.88;;;15.34;72.97
66945;BME280;53853;51.982;5.928;2023-08-30T00:59:18;100747.84;;;15.31;73.07
66945;BME280;53853;51.982;5.928;2023-08-30T01:01:49;100750.25;;;15.26;73.32
66945;BME280;53853;51.982;5.928;2023-08-30T01:04:20;100752.28;;;15.24;73.07
66945;BME280;53853;51.982;5.928;2023-08-30T01:06:50;100760.69;;;15.20;72.75
66945;BME280;53853;51.982;5.928;2023-08-30T01:09:23;100748.66;;;15.16;72.21
66945;BME280;53853;51.982;5.928;2023-08-30T01:11:58;100747.72;;;15.09;72.73
66945;BME280;53853;51.982;5.928;2023-08-30T01:14:34;100750.31;;;15.02;72.88
66945;BME280;53853;51.982;5.928;2023-08-30T01:17:08;100750.84;;;14.98;72.96
66945;BME280;53853;51.982;5.928;2023-08-30T01:19:49;100740.00;;;14.91;73.10
66945;BME280;53853;51.982;5.928;2023-08-30T01:22:28;100739.91;;;14.84;73.64
66945;BME280;53853;51.982;5.928;2023-08-30T01:25:14;100735.25;;;14.78;73.91
66945;BME280;53853;51.982;5.928;2023-08-30T01:27:49;100744.84;;;14.73;74.26
66945;BME280;53853;51.982;5.928;2023-08-30T01:30:21;100741.69;;;14.69;74.24
66945;BME280;53853;51.982;5.928;2023-08-30T01:32:54;100738.88;;;14.62;74.49
66945;BME280;53853;51.982;5.928;2023-08-30T01:35:25;100746.41;;;14.59;74.84
66945;BME280;53853;51.982;5.928;2023-08-30T01:38:02;100732.53;;;14.55;74.71
66945;BME280;53853;51.982;5.928;2023-08-30T01:40:36;100742.78;;;14.52;75.02
66945;BME280;53853;51.982;5.928;2023-08-30T01:43:10;100734.28;;;14.48;75.39
66945;BME280;53853;51.982;5.928;2023-08-30T01:45:42;100732.78;;;14.45;74.67
66945;BME280;53853;51.982;5.928;2023-08-30T01:48:15;100737.31;;;14.45;74.21
66945;BME280;53853;51.982;5.928;2023-08-30T01:50:46;100726.09;;;14.41;74.01
66945;BME280;53853;51.982;5.928;2023-08-30T01:53:16;100732.81;;;14.37;74.14
66945;BME280;53853;51.982;5.928;2023-08-30T01:55:47;100735.88;;;14.34;74.47
66945;BME280;53853;51.982;5.928;2023-08-30T01:58:19;100735.56;;;14.29;75.08
66945;BME280;53853;51.982;5.928;2023-08-30T02:00:49;100740.72;;;14.30;75.30
66945;BME280;53853;51.982;5.928;2023-08-30T02:03:19;100737.03;;;14.31;75.35
66945;BME280;53853;51.982;5.928;2023-08-30T02:05:58;100733.19;;;14.34;75.71
66945;BME280;53853;51.982;5.928;2023-08-30T02:08:37;100738.38;;;14.36;75.96
66945;BME280;53853;51.982;5.928;2023-08-30T02:11:11;100728.47;;;14.36;76.16
66945;BME280;53853;51.982;5.928;2023-08-30T02:13:46;100728.94;;;14.40;75.72
66945;BME280;53853;51.982;5.928;2023-08-30T02:16:17;100724.44;;;14.40;75.84
66945;BME280;53853;51.982;5.928;2023-08-30T02:18:48;100718.53;;;14.45;75.78
66945;BME280;53853;51.982;5.928;2023-08-30T02:21:19;100725.03;;;14.50;75.46
66945;BME280;53853;51.982;5.928;2023-08-30T02:23:50;100720.31;;;14.53;75.54
66945;BME280;53853;51.982;5.928;2023-08-30T02:26:20;100722.63;;;14.56;75.88
66945;BME280;53853;51.982;5.928;2023-08-30T02:28:53;100718.63;;;14.60;75.62
66945;BME280;53853;51.982;5.928;2023-08-30T02:31:23;100724.28;;;14.65;75.72
66945;BME280;53853;51.982;5.928;2023-08-30T02:33:53;100720.22;;;14.69;75.86
66945;BME280;53853;51.982;5.928;2023-08-30T02:36:23;100715.31;;;14.73;75.47
66945;BME280;53853;51.982;5.928;2023-08-30T02:38:53;100710.44;;;14.76;75.53
66945;BME280;53853;51.982;5.928;2023-08-30T02:41:23;100709.88;;;14.81;75.25
66945;BME280;53853;51.982;5.928;2023-08-30T02:46:28;100706.03;;;14.83;75.62
66945;BME280;53853;51.982;5.928;2023-08-30T02:48:58;100703.81;;;14.87;75.47
66945;BME280;53853;51.982;5.928;2023-08-30T02:51:28;100699.25;;;14.88;75.36
66945;BME280;53853;51.982;5.928;2023-08-30T02:53:58;100695.56;;;14.89;75.11
66945;BME280;53853;51.982;5.928;2023-08-30T02:56:28;100687.53;;;14.89;75.36
66945;BME280;53853;51.982;5.928;2023-08-30T02:58:58;100689.38;;;14.88;75.36
66945;BME280;53853;51.982;5.928;2023-08-30T03:01:30;100684.03;;;14.88;75.61
66945;BME280;53853;51.982;5.928;2023-08-30T03:04:01;100684.66;;;14.90;75.18
66945;BME280;53853;51.982;5.928;2023-08-30T03:06:32;100679.13;;;14.92;75.36
66945;BME280;53853;51.982;5.928;2023-08-30T03:09:03;100681.63;;;14.93;75.23
66945;BME280;53853;51.982;5.928;2023-08-30T03:11:36;100686.63;;;14.96;75.23
66945;BME280;53853;51.982;5.928;2023-08-30T03:14:07;100686.25;;;14.99;75.04
66945;BME280;53853;51.982;5.928;2023-08-30T03:16:41;100687.06;;;15.00;75.31
66945;BME280;53853;51.982;5.928;2023-08-30T03:19:12;100681.72;;;15.00;75.62
66945;BME280;53853;51.982;5.928;2023-08-30T03:21:44;100685.06;;;15.02;75.58
66945;BME280;53853;51.982;5.928;2023-08-30T03:24:14;100677.66;;;15.04;75.17
66945;BME280;53853;51.982;5.928;2023-08-30T03:26:44;100677.47;;;15.06;75.02
66945;BME280;53853;51.982;5.928;2023-08-30T03:29:14;100669.88;;;15.09;74.65
66945;BME280;53853;51.982;5.928;2023-08-30T03:31:47;100661.66;;;15.11;74.01
66945;BME280;53853;51.982;5.928;2023-08-30T03:34:17;100650.72;;;15.12;73.97
66945;BME280;53853;51.982;5.928;2023-08-30T03:36:47;100642.31;;;15.15;73.68
66945;BME280;53853;51.982;5.928;2023-08-30T03:39:20;100636.13;;;15.15;73.30
66945;BME280;53853;51.982;5.928;2023-08-30T03:41:51;100627.22;;;15.14;73.02
66945;BME280;53853;51.982;5.928;2023-08-30T03:44:21;100633.25;;;15.16;73.22
66945;BME280;53853;51.982;5.928;2023-08-30T03:46:53;100627.88;;;15.16;73.13
66945;BME280;53853;51.982;5.928;2023-08-30T03:49:24;100623.69;;;15.14;72.51
66945;BME280;53853;51.982;5.928;2023-08-30T03:51:54;100624.25;;;15.09;72.57
66945;BME280;53853;51.982;5.928;2023-08-30T03:54:24;100621.47;;;15.02;72.94
66945;BME280;53853;51.982;5.928;2023-08-30T03:56:54;100617.03;;;14.95;73.87
66945;BME280;53853;51.982;5.928;2023-08-30T03:59:24;100620.25;;;14.90;73.53
66945;BME280;53853;51.982;5.928;2023-08-30T04:01:57;100613.13;;;14.82;73.54
66945;BME280;53853;51.982;5.928;2023-08-30T04:04:28;100611.19;;;14.76;73.95
66945;BME280;53853;51.982;5.928;2023-08-30T04:06:58;100609.41;;;14.68;74.28
66945;BME280;53853;51.982;5.928;2023-08-30T04:09:29;100595.06;;;14.61;74.56
66945;BME280;53853;51.982;5.928;2023-08-30T04:11:59;100601.94;;;14.56;74.58
66945;BME280;53853;51.982;5.928;2023-08-30T04:14:31;100597.31;;;14.49;74.78
66945;BME280;53853;51.982;5.928;2023-08-30T04:17:04;100594.16;;;14.46;74.81
66945;BME280;53853;51.982;5.928;2023-08-30T04:19:35;100586.66;;;14.41;75.28
66945;BME280;53853;51.982;5.928;2023-08-30T04:22:09;100589.88;;;14.37;75.45
66945;BME280;53853;51.982;5.928;2023-08-30T04:24:39;100593.97;;;14.32;74.79
66945;BME280;53853;51.982;5.928;2023-08-30T04:27:09;100580.28;;;14.27;74.84
66945;BME280;53853;51.982;5.928;2023-08-30T04:29:39;100586.19;;;14.23;74.96
66945;BME280;53853;51.982;5.928;2023-08-30T04:32:14;100585.84;;;14.18;75.30
66945;BME280;53853;51.982;5.928;2023-08-30T04:34:44;100587.44;;;14.12;75.43
66945;BME280;53853;51.982;5.928;2023-08-30T04:37:14;100575.56;;;14.06;76.05
66945;BME280;53853;51.982;5.928;2023-08-30T04:39:47;100576.94;;;14.02;76.24
66945;BME280;53853;51.982;5.928;2023-08-30T04:42:18;100578.97;;;14.00;75.98
66945;BME280;53853;51.982;5.928;2023-08-30T04:44:48;100570.63;;;13.95;76.37
66945;BME280;53853;51.982;5.928;2023-08-30T04:47:20;100573.50;;;13.93;76.16
66945;BME280;53853;51.982;5.928;2023-08-30T04:49:51;100581.69;;;13.92;76.18
66945;BME280;53853;51.982;5.928;2023-08-30T04:52:21;100579.38;;;13.89;76.03
66945;BME280;53853;51.982;5.928;2023-08-30T04:54:51;100578.72;;;13.87;76.04
66945;BME280;53853;51.982;5.928;2023-08-30T04:57:22;100587.94;;;13.84;75.96
66945;BME280;53853;51.982;5.928;2023-08-30T04:59:53;100585.78;;;13.80;76.33
66945;BME280;53853;51.982;5.928;2023-08-30T05:02:25;100581.63;;;13.77;76.73
66945;BME280;53853;51.982;5.928;2023-08-30T05:05:02;100580.97;;;13.75;76.36
66945;BME280;53853;51.982;5.928;2023-08-30T05:07:33;100573.09;;;13.73;76.38
66945;BME280;53853;51.982;5.928;2023-08-30T05:10:04;100576.81;;;13.72;76.64
66945;BME280;53853;51.982;5.928;2023-08-30T05:12:35;100570.63;;;13.72;77.28
66945;BME280;53853;51.982;5.928;2023-08-30T05:15:07;100569.59;;;13.73;77.06
66945;BME280;53853;51.982;5.928;2023-08-30T05:17:39;100570.44;;;13.73;76.55
66945;BME280;53853;51.982;5.928;2023-08-30T05:20:10;100558.88;;;13.73;76.64
66945;BME280;53853;51.982;5.928;2023-08-30T05:22:40;100552.72;;;13.72;76.99
66945;BME280;53853;51.982;5.928;2023-08-30T05:25:10;100560.56;;;13.74;76.61
66945;BME280;53853;51.982;5.928;2023-08-30T05:27:39;100559.72;;;13.73;76.99
66945;BME280;53853;51.982;5.928;2023-08-30T05:30:11;100550.50;;;13.76;76.85
66945;BME280;53853;51.982;5.928;2023-08-30T05:32:44;100556.50;;;13.78;77.05
66945;BME280;53853;51.982;5.928;2023-08-30T05:35:36;100544.97;;;13.77;76.70
66945;BME280;53853;51.982;5.928;2023-08-30T05:38:14;100540.25;;;13.80;76.85
66945;BME280;53853;51.982;5.928;2023-08-30T05:40:54;100539.91;;;13.83;76.79
66945;BME280;53853;51.982;5.928;2023-08-30T05:43:24;100547.41;;;13.87;76.82
66945;BME280;53853;51.982;5.928;2023-08-30T05:45:54;100539.19;;;13.89;76.94
66945;BME280;53853;51.982;5.928;2023-08-30T05:48:31;100549.19;;;13.95;76.95
66945;BME280;53853;51.982;5.928;2023-08-30T05:51:01;100545.34;;;13.98;76.94
66945;BME280;53853;51.982;5.928;2023-08-30T05:53:31;100535.72;;;14.03;76.76
66945;BME280;53853;51.982;5.928;2023-08-30T05:56:00;100539.56;;;14.09;76.73
66945;BME280;53853;51.982;5.928;2023-08-30T05:58:30;100531.78;;;14.14;76.83
66945;BME280;53853;51.982;5.928;2023-08-30T06:01:00;100525.72;;;14.20;76.94
66945;BME280;53853;51.982;5.928;2023-08-30T06:03:33;100525.81;;;14.27;76.85
66945;BME280;53853;51.982;5.928;2023-08-30T06:06:04;100530.44;;;14.33;76.83
66945;BME280;53853;51.982;5.928;2023-08-30T06:08:34;100529.72;;;14.39;76.95
66945;BME280;53853;51.982;5.928;2023-08-30T06:11:04;100525.78;;;14.50;76.91
66945;BME280;53853;51.982;5.928;2023-08-30T06:13:34;100527.84;;;14.63;76.58
66945;BME280;53853;51.982;5.928;2023-08-30T06:16:04;100523.31;;;14.78;76.28
66945;BME280;53853;51.982;5.928;2023-08-30T06:18:37;100526.00;;;14.93;75.90
66945;BME280;53853;51.982;5.928;2023-08-30T06:21:08;100519.97;;;15.06;75.81
66945;BME280;53853;51.982;5.928;2023-08-30T06:23:38;100519.47;;;15.17;75.70
66945;BME280;53853;51.982;5.928;2023-08-30T06:26:08;100522.72;;;15.28;75.34
66945;BME280;53853;51.982;5.928;2023-08-30T06:28:38;100522.59;;;15.36;75.37
66945;BME280;53853;51.982;5.928;2023-08-30T06:31:09;100527.03;;;15.44;74.84
66945;BME280;53853;51.982;5.928;2023-08-30T06:33:42;100522.91;;;15.48;74.65
66945;BME280;53853;51.982;5.928;2023-08-30T06:36:13;100522.34;;;15.52;74.69
66945;BME280;53853;51.982;5.928;2023-08-30T06:38:44;100521.97;;;15.55;74.53
66945;BME280;53853;51.982;5.928;2023-08-30T06:41:14;100509.84;;;15.60;74.56
66945;BME280;53853;51.982;5.928;2023-08-30T06:43:44;100519.81;;;15.66;74.66
66945;BME280;53853;51.982;5.928;2023-08-30T06:46:14;100523.56;;;15.71;74.74
66945;BME280;53853;51.982;5.928;2023-08-30T06:48:47;100522.03;;;15.77;74.45
66945;BME280;53853;51.982;5.928;2023-08-30T06:51:17;100522.09;;;15.84;74.21
66945;BME280;53853;51.982;5.928;2023-08-30T06:53:46;100517.81;;;15.89;74.23
66945;BME280;53853;51.982;5.928;2023-08-30T06:56:16;100511.84;;;15.94;74.07
66945;BME280;53853;51.982;5.928;2023-08-30T06:58:46;100517.28;;;16.01;74.15
66945;BME280;53853;51.982;5.928;2023-08-30T07:01:16;100519.38;;;16.05;73.95
66945;BME280;53853;51.982;5.928;2023-08-30T07:03:49;100514.44;;;16.09;73.87
66945;BME280;53853;51.982;5.928;2023-08-30T07:06:19;100509.69;;;16.11;73.80
66945;BME280;53853;51.982;5.928;2023-08-30T07:08:48;100510.97;;;16.15;73.81
66945;BME280;53853;51.982;5.928;2023-08-30T07:11:18;100517.00;;;16.17;73.63
66945;BME280;53853;51.982;5.928;2023-08-30T07:13:48;100506.88;;;16.19;73.65
66945;BME280;53853;51.982;5.928;2023-08-30T07:16:18;100519.91;;;16.22;73.70
66945;BME280;53853;51.982;5.928;2023-08-30T07:18:51;100515.19;;;16.24;73.50
66945;BME280;53853;51.982;5.928;2023-08-30T07:21:21;100507.56;;;16.28;73.64
66945;BME280;53853;51.982;5.928;2023-08-30T07:23:51;100513.56;;;16.30;73.49
66945;BME280;53853;51.982;5.928;2023-08-30T07:26:21;100517.09;;;16.30;73.63
66945;BME280;53853;51.982;5.928;2023-08-30T07:28:51;100520.00;;;16.29;73.55
66945;BME280;53853;51.982;5.928;2023-08-30T07:31:21;100519.53;;;16.25;73.47
66945;BME280;53853;51.982;5.928;2023-08-30T07:33:54;100510.22;;;16.21;73.46
66945;BME280;53853;51.982;5.928;2023-08-30T07:36:25;100513.47;;;16.17;73.45
66945;BME280;53853;51.982;5.928;2023-08-30T07:38:55;100507.88;;;16.11;73.56
66945;BME280;53853;51.982;5.928;2023-08-30T07:41:25;100513.81;;;16.07;74.10
66945;BME280;53853;51.982;5.928;2023-08-30T07:43:55;100515.59;;;16.00;74.66
66945;BME280;53853;51.982;5.928;2023-08-30T07:46:25;100504.19;;;15.91;75.11
66945;BME280;53853;51.982;5.928;2023-08-30T07:48:58;100494.00;;;15.86;75.23
66945;BME280;53853;51.982;5.928;2023-08-30T07:51:28;100497.69;;;15.85;74.92
66945;BME280;53853;51.982;5.928;2023-08-30T07:53:58;100497.06;;;15.83;75.13
66945;BME280;53853;51.982;5.928;2023-08-30T07:56:28;100493.94;;;15.80;75.06
66945;BME280;53853;51.982;5.928;2023-08-30T07:58:58;100488.06;;;15.76;74.94
66945;BME280;53853;51.982;5.928;2023-08-30T08:01:28;100500.06;;;15.73;75.24
66945;BME280;53853;51.982;5.928;2023-08-30T08:04:00;100496.91;;;15.70;75.54
66945;BME280;53853;51.982;5.928;2023-08-30T08:06:30;100495.25;;;15.69;75.68
66945;BME280;53853;51.982;5.928;2023-08-30T08:09:00;100481.34;;;15.65;75.61
66945;BME280;53853;51.982;5.928;2023-08-30T08:11:30;100476.38;;;15.62;76.07
66945;BME280;53853;51.982;5.928;2023-08-30T08:14:00;100476.59;;;15.61;76.50
66945;BME280;53853;51.982;5.928;2023-08-30T08:16:30;100485.66;;;15.60;76.65
66945;BME280;53853;51.982;5.928;2023-08-30T08:19:03;100476.31;;;15.55;76.96
66945;BME280;53853;51.982;5.928;2023-08-30T08:21:34;100480.03;;;15.54;77.25
66945;BME280;53853;51.982;5.928;2023-08-30T08:24:04;100470.31;;;15.53;76.89
66945;BME280;53853;51.982;5.928;2023-08-30T08:26:34;100472.16;;;15.53;77.19
66945;BME280;53853;51.982;5.928;2023-08-30T08:29:04;100460.56;;;15.52;76.92
66945;BME280;53853;51.982;5.928;2023-08-30T08:31:34;100449.00;;;15.52;77.33
66945;BME280;53853;51.982;5.928;2023-08-30T08:34:11;100446.31;;;15.52;77.13
66945;BME280;53853;51.982;5.928;2023-08-30T08:36:42;100439.94;;;15.53;77.57
66945;BME280;53853;51.982;5.928;2023-08-30T08:39:12;100445.94;;;15.55;77.55
66945;BME280;53853;51.982;5.928;2023-08-30T08:41:46;100439.38;;;15.57;78.09
66945;BME280;53853;51.982;5.928;2023-08-30T08:44:16;100441.66;;;15.61;78.58
66945;BME280;53853;51.982;5.928;2023-08-30T08:46:47;100438.56;;;15.64;78.90
66945;BME280;53853;51.982;5.928;2023-08-30T08:49:21;100424.75;;;15.67;78.91
66945;BME280;53853;51.982;5.928;2023-08-30T08:51:55;100425.22;;;15.70;78.64
66945;BME280;53853;51.982;5.928;2023-08-30T08:54:26;100420.28;;;15.74;78.62
66945;BME280;53853;51.982;5.928;2023-08-30T08:56:57;100418.06;;;15.78;78.45
66945;BME280;53853;51.982;5.928;2023-08-30T08:59:27;100419.53;;;15.80;78.63
66945;BME280;53853;51.982;5.928;2023-08-30T09:01:57;100422.03;;;15.82;78.96
66945;BME280;53853;51.982;5.928;2023-08-30T09:04:31;100415.81;;;15.81;79.05
66945;BME280;53853;51.982;5.928;2023-08-30T09:07:02;100420.97;;;15.83;79.32
66945;BME280;53853;51.982;5.928;2023-08-30T09:09:33;100417.66;;;15.81;79.61
66945;BME280;53853;51.982;5.928;2023-08-30T09:12:04;100421.59;;;15.78;79.70
66945;BME280;53853;51.982;5.928;2023-08-30T09:14:34;100417.03;;;15.79;79.51
66945;BME280;53853;51.982;5.928;2023-08-30T09:17:04;100416.84;;;15.80;79.50
66945;BME280;53853;51.982;5.928;2023-08-30T09:19:36;100414.78;;;15.82;79.64
66945;BME280;53853;51.982;5.928;2023-08-30T09:22:06;100422.66;;;15.84;79.79
66945;BME280;53853;51.982;5.928;2023-08-30T09:24:40;100412.53;;;15.86;79.48
66945;BME280;53853;51.982;5.928;2023-08-30T09:27:10;100408.22;;;15.85;79.96
66945;BME280;53853;51.982;5.928;2023-08-30T09:29:40;100404.66;;;15.84;79.81
66945;BME280;53853;51.982;5.928;2023-08-30T09:32:11;100414.22;;;15.87;79.35
66945;BME280;53853;51.982;5.928;2023-08-30T09:34:49;100407.63;;;15.89;79.33
66945;BME280;53853;51.982;5.928;2023-08-30T09:37:22;100404.75;;;15.91;79.35
66945;BME280;53853;51.982;5.928;2023-08-30T09:39:53;100409.72;;;15.94;79.59
66945;BME280;53853;51.982;5.928;2023-08-30T09:42:23;100402.28;;;15.96;80.05
66945;BME280;53853;51.982;5.928;2023-08-30T09:44:53;100402.72;;;16.00;80.12
66945;BME280;53853;51.982;5.928;2023-08-30T09:47:24;100400.84;;;16.00;80.14
66945;BME280;53853;51.982;5.928;2023-08-30T09:49:59;100392.59;;;16.02;80.21
66945;BME280;53853;51.982;5.928;2023-08-30T09:52:31;100387.88;;;16.04;80.12
66945;BME280;53853;51.982;5.928;2023-08-30T09:55:03;100379.41;;;16.07;80.39
66945;BME280;53853;51.982;5.928;2023-08-30T09:57:33;100383.56;;;16.09;81.09
66945;BME280;53853;51.982;5.928;2023-08-30T10:00:05;100375.09;;;16.12;81.16
66945;BME280;53853;51.982;5.928;2023-08-30T10:02:35;100373.47;;;16.18;81.25
66945;BME280;53853;51.982;5.928;2023-08-30T10:05:12;100373.91;;;16.22;81.17
66945;BME280;53853;51.982;5.928;2023-08-30T10:07:42;100366.53;;;16.30;81.40
66945;BME280;53853;51.982;5.928;2023-08-30T10:10:13;100372.75;;;16.38;81.53
66945;BME280;53853;51.982;5.928;2023-08-30T10:12:46;100364.50;;;16.46;81.28
66945;BME280;53853;51.982;5.928;2023-08-30T10:15:16;100362.88;;;16.52;81.30
66945;BME280;53853;51.982;5.928;2023-08-30T10:17:47;100359.59;;;16.56;81.04
66945;BME280;53853;51.982;5.928;2023-08-30T10:20:22;100375.75;;;16.63;81.21
66945;BME280;53853;51.982;5.928;2023-08-30T10:22:53;100367.91;;;16.68;81.40
66945;BME280;53853;51.982;5.928;2023-08-30T10:25:26;100367.50;;;16.71;81.33
66945;BME280;53853;51.982;5.928;2023-08-30T10:27:58;100363.19;;;16.77;81.22
66945;BME280;53853;51.982;5.928;2023-08-30T10:30:28;100362.38;;;16.83;80.99
66945;BME280;53853;51.982;5.928;2023-08-30T10:32:58;100358.50;;;16.92;81.07
66945;BME280;53853;51.982;5.928;2023-08-30T10:35:32;100364.94;;;17.05;81.18
66945;BME280;53853;51.982;5.928;2023-08-30T10:38:03;100366.41;;;17.14;81.18
66945;BME280;53853;51.982;5.928;2023-08-30T10:40:33;100365.59;;;17.20;81.13
66945;BME280;53853;51.982;5.928;2023-08-30T10:43:04;100352.53;;;17.24;81.14
66945;BME280;53853;51.982;5.928;2023-08-30T10:45:34;100358.56;;;17.32;80.92
66945;BME280;53853;51.982;5.928;2023-08-30T10:48:05;100342.59;;;17.37;80.89
66945;BME280;53853;51.982;5.928;2023-08-30T10:50:37;100349.25;;;17.42;80.57
66945;BME280;53853;51.982;5.928;2023-08-30T10:53:13;100352.56;;;17.44;80.75
66945;BME280;53853;51.982;5.928;2023-08-30T10:56:09;100333.91;;;17.49;80.62
66945;BME280;53853;51.982;5.928;2023-08-30T10:58:43;100352.94;;;17.54;80.60
66945;BME280;53853;51.982;5.928;2023-08-30T11:01:13;100353.59;;;17.56;80.39
66945;BME280;53853;51.982;5.928;2023-08-30T11:03:44;100351.72;;;17.56;80.39
66945;BME280;53853;51.982;5.928;2023-08-30T11:06:17;100337.44;;;17.56;80.08
66945;BME280;53853;51.982;5.928;2023-08-30T11:08:48;100335.75;;;17.55;79.78
66945;BME280;53853;51.982;5.928;2023-08-30T11:11:19;100349.63;;;17.59;80.44
66945;BME280;53853;51.982;5.928;2023-08-30T11:13:49;100347.38;;;17.62;80.53
66945;BME280;53853;51.982;5.928;2023-08-30T11:16:22;100341.34;;;17.73;80.97
66945;BME280;53853;51.982;5.928;2023-08-30T11:18:52;100333.84;;;17.82;80.83
66945;BME280;53853;51.982;5.928;2023-08-30T11:21:24;100336.56;;;17.89;80.75
66945;BME280;53853;51.982;5.928;2023-08-30T11:23:54;100336.16;;;17.92;80.62
66945;BME280;53853;51.982;5.928;2023-08-30T11:26:24;100348.19;;;17.96;80.70
66945;BME280;53853;51.982;5.928;2023-08-30T11:28:55;100357.50;;;18.00;79.83
66945;BME280;53853;51.982;5.928;2023-08-30T11:31:26;100359.97;;;18.08;80.18
66945;BME280;53853;51.982;5.928;2023-08-30T11:33:57;100357.25;;;18.15;79.73
66945;BME280;53853;51.982;5.928;2023-08-30T11:36:31;100361.00;;;18.21;79.52
66945;BME280;53853;51.982;5.928;2023-08-30T11:39:01;100356.00;;;18.24;79.34
66945;BME280;53853;51.982;5.928;2023-08-30T11:41:32;100357.00;;;18.30;78.97
66945;BME280;53853;51.982;5.928;2023-08-30T11:44:02;100356.34;;;18.35;78.39
66945;BME280;53853;51.982;5.928;2023-08-30T11:46:33;100365.06;;;18.43;78.32
66945;BME280;53853;51.982;5.928;2023-08-30T11:49:03;100359.22;;;18.53;77.12
66945;BME280;53853;51.982;5.928;2023-08-30T11:51:37;100363.72;;;18.66;76.54
66945;BME280;53853;51.982;5.928;2023-08-30T11:54:07;100368.22;;;18.79;76.54
66945;BME280;53853;51.982;5.928;2023-08-30T11:56:38;100362.16;;;18.90;75.34
66945;BME280;53853;51.982;5.928;2023-08-30T11:59:17;100365.81;;;19.03;74.88
66945;BME280;53853;51.982;5.928;2023-08-30T12:01:47;100368.47;;;19.09;73.21
66945;BME280;53853;51.982;5.928;2023-08-30T12:04:17;100366.19;;;19.13;72.67
66945;BME280;53853;51.982;5.928;2023-08-30T12:06:54;100362.66;;;19.12;72.31
66945;BME280;53853;51.982;5.928;2023-08-30T12:09:30;100371.41;;;19.08;69.94
66945;BME280;53853;51.982;5.928;2023-08-30T12:12:08;100365.56;;;19.11;71.11
66945;BME280;53853;51.982;5.928;2023-08-30T12:14:39;100373.81;;;19.23;72.35
66945;BME280;53853;51.982;5.928;2023-08-30T12:17:09;100371.06;;;19.29;70.23
66945;BME280;53853;51.982;5.928;2023-08-30T12:19:40;100379.16;;;19.29;68.75
66945;BME280;53853;51.982;5.928;2023-08-30T12:22:12;100380.81;;;19.30;68.05
66945;BME280;53853;51.982;5.928;2023-08-30T12:24:43;100392.84;;;19.34;69.43
66945;BME280;53853;51.982;5.928;2023-08-30T12:27:13;100395.31;;;19.36;69.46
66945;BME280;53853;51.982;5.928;2023-08-30T12:29:43;100398.63;;;19.38;69.36
66945;BME280;53853;51.982;5.928;2023-08-30T12:32:13;100399.09;;;19.35;68.32
66945;BME280;53853;51.982;5.928;2023-08-30T12:34:43;100392.44;;;19.31;65.06
66945;BME280;53853;51.982;5.928;2023-08-30T12:37:16;100402.44;;;19.30;65.03
66945;BME280;53853;51.982;5.928;2023-08-30T12:39:46;100400.13;;;19.34;64.71
66945;BME280;53853;51.982;5.928;2023-08-30T12:42:15;100412.13;;;19.38;65.22
66945;BME280;53853;51.982;5.928;2023-08-30T12:44:46;100409.84;;;19.42;65.44
66945;BME280;53853;51.982;5.928;2023-08-30T12:47:16;100404.38;;;19.48;65.39
66945;BME280;53853;51.982;5.928;2023-08-30T12:49:46;100406.44;;;19.53;66.14
66945;BME280;53853;51.982;5.928;2023-08-30T12:52:18;100394.56;;;19.54;65.43
66945;BME280;53853;51.982;5.928;2023-08-30T12:54:48;100390.81;;;19.55;65.32
66945;BME280;53853;51.982;5.928;2023-08-30T12:57:19;100393.13;;;19.51;63.96
66945;BME280;53853;51.982;5.928;2023-08-30T12:59:48;100399.56;;;19.50;64.73
66945;BME280;53853;51.982;5.928;2023-08-30T13:02:18;100402.72;;;19.47;64.28
66945;BME280;53853;51.982;5.928;2023-08-30T13:04:48;100403.78;;;19.46;63.79
66945;BME280;53853;51.982;5.928;2023-08-30T13:07:21;100400.66;;;19.43;64.44
66945;BME280;53853;51.982;5.928;2023-08-30T13:09:51;100396.56;;;19.40;63.70
66945;BME280;53853;51.982;5.928;2023-08-30T13:12:21;100398.38;;;19.46;64.57
66945;BME280;53853;51.982;5.928;2023-08-30T13:14:51;100399.34;;;19.52;61.71